Time;durP1;ratioP1;P1;durP2;ratioP2;P2;SDS_P1;SDS_P2;PMS_P1;PMS_P2;Temp;Humidity;BMP_temperature;BMP_pressure;BME280_temperature;BME280_humidity;BME280_pressure;Samples;Min_cycle;Max_cycle;Signal;HPM_P1;HPM_P2
2023/06/25 00:00:17;;;;;;;8.45;5.90;;;;;;;19.86;74.32;101508.88;5038926;28;20024;-64
2023/06/25 00:02:43;;;;;;;8.52;5.18;;;;;;;19.83;74.53;101498.50;5039703;28;20037;-64
2023/06/25 00:05:08;;;;;;;9.98;5.47;;;;;;;19.80;74.87;101503.03;5038513;28;20461;-64
2023/06/25 00:07:34;;;;;;;7.50;5.20;;;;;;;19.77;75.24;101498.69;5039397;28;20043;-64
2023/06/25 00:10:00;;;;;;;16.02;7.10;;;;;;;19.78;75.66;101491.66;5042468;28;20047;-64
2023/06/25 00:12:25;;;;;;;10.93;6.75;;;;;;;19.75;76.58;101497.03;5034539;28;20087;-64
2023/06/25 00:14:51;;;;;;;8.60;6.22;;;;;;;19.68;77.27;101491.13;5037543;28;20122;-64
2023/06/25 00:17:17;;;;;;;10.98;7.65;;;;;;;19.67;77.48;101491.19;5039242;28;20065;-64
2023/06/25 00:19:46;;;;;;;10.32;7.55;;;;;;;19.64;78.28;101494.78;5036770;28;20045;-64
2023/06/25 00:22:12;;;;;;;10.73;7.60;;;;;;;19.58;78.24;101482.72;5039792;28;20059;-64
2023/06/25 00:24:39;;;;;;;9.93;6.68;;;;;;;19.56;78.18;101481.91;5037831;28;20684;-64
2023/06/25 00:27:05;;;;;;;10.50;7.03;;;;;;;19.55;78.27;101469.72;5039312;28;20032;-64
2023/06/25 00:29:31;;;;;;;10.80;6.82;;;;;;;19.52;78.33;101474.22;5035200;28;20040;-64
2023/06/25 00:31:56;;;;;;;9.75;7.00;;;;;;;19.53;78.23;101468.06;5038532;28;20041;-64
2023/06/25 00:34:21;;;;;;;9.90;6.68;;;;;;;19.51;78.14;101469.88;5038354;28;20044;-64
2023/06/25 00:36:51;;;;;;;8.75;6.25;;;;;;;19.47;78.27;101466.47;5038229;28;20048;-64
2023/06/25 00:39:17;;;;;;;8.00;6.65;;;;;;;19.44;78.68;101471.00;5033363;28;20100;-64
2023/06/25 00:41:43;;;;;;;12.38;7.40;;;;;;;19.40;78.75;101464.13;5036718;28;20768;-64
2023/06/25 00:44:08;;;;;;;9.32;6.57;;;;;;;19.36;78.97;101465.13;5036928;28;20039;-64
2023/06/25 00:46:34;;;;;;;12.48;6.57;;;;;;;19.32;78.94;101463.53;5024630;28;20046;-64
2023/06/25 00:49:05;;;;;;;9.27;6.75;;;;;;;19.29;79.07;101474.13;5035791;28;20044;-64
2023/06/25 00:51:34;;;;;;;10.70;6.93;;;;;;;19.29;79.28;101467.13;5038600;28;20020;-64
2023/06/25 00:54:00;;;;;;;8.70;7.03;;;;;;;19.25;79.43;101459.41;5038358;28;20035;-64
2023/06/25 00:56:29;;;;;;;7.15;6.05;;;;;;;19.22;79.56;101467.38;5034698;28;20041;-64
2023/06/25 00:59:02;;;;;;;7.05;5.60;;;;;;;19.19;79.72;101470.94;5036383;28;20498;-63
2023/06/25 01:01:45;;;;;;;10.60;7.70;;;;;;;19.15;79.97;101461.47;5035462;28;20053;-63
2023/06/25 01:04:27;;;;;;;8.63;6.65;;;;;;;19.13;80.00;101462.41;5027664;28;20037;-64
2023/06/25 01:06:57;;;;;;;9.02;6.20;;;;;;;19.07;80.16;101463.47;5034084;28;20037;-64
2023/06/25 01:09:25;;;;;;;10.07;6.72;;;;;;;19.03;80.03;101454.84;5038547;28;20079;-63
2023/06/25 01:12:04;;;;;;;9.73;6.25;;;;;;;19.04;79.77;101461.81;5036532;28;20064;-64
2023/06/25 01:14:32;;;;;;;8.63;6.30;;;;;;;18.99;80.01;101458.50;5038421;28;20573;-64
2023/06/25 01:16:58;;;;;;;9.25;6.70;;;;;;;18.97;80.21;101456.81;5040833;28;20050;-64
2023/06/25 01:19:29;;;;;;;9.48;6.63;;;;;;;18.95;80.05;101453.38;5036160;28;20033;-64
2023/06/25 01:22:00;;;;;;;8.85;6.57;;;;;;;18.92;80.24;101461.34;5038569;28;20175;-64
2023/06/25 01:24:27;;;;;;;9.18;6.40;;;;;;;18.86;80.40;101457.16;5034273;28;20119;-64
2023/06/25 01:26:56;;;;;;;15.13;9.27;;;;;;;18.83;80.40;101457.22;5019305;28;20048;-64
2023/06/25 01:29:22;;;;;;;12.23;8.98;;;;;;;18.81;80.89;101458.19;5027835;28;20048;-64
2023/06/25 01:31:51;;;;;;;19.35;8.05;;;;;;;18.74;81.52;101454.88;5037992;28;20037;-64
2023/06/25 01:34:19;;;;;;;9.35;7.00;;;;;;;18.69;81.52;101456.78;5040658;28;20079;-64
2023/06/25 01:36:48;;;;;;;10.75;7.43;;;;;;;18.66;81.48;101458.66;5034979;28;20059;-64
2023/06/25 01:39:15;;;;;;;10.70;7.32;;;;;;;18.66;81.85;101451.66;5035569;28;20725;-64
2023/06/25 01:41:40;;;;;;;10.70;7.18;;;;;;;18.63;82.16;101453.50;5037543;28;20410;-64
2023/06/25 01:44:06;;;;;;;10.02;7.30;;;;;;;18.59;82.17;101454.50;5033915;28;20049;-64
2023/06/25 01:46:31;;;;;;;12.20;8.40;;;;;;;18.55;82.49;101450.28;5034350;28;20037;-64
2023/06/25 01:48:56;;;;;;;9.10;7.38;;;;;;;18.48;82.51;101447.84;5035392;28;20029;-64
2023/06/25 01:51:22;;;;;;;7.70;6.28;;;;;;;18.45;82.90;101447.91;5039028;28;20817;-64
2023/06/25 01:53:48;;;;;;;13.07;7.40;;;;;;;18.42;82.76;101445.41;5033917;28;20037;-64
2023/06/25 01:56:13;;;;;;;12.48;6.68;;;;;;;18.38;83.00;101446.38;5039140;28;20045;-64
2023/06/25 01:58:39;;;;;;;11.43;7.65;;;;;;;18.35;82.96;101441.22;5036379;28;20598;-64
2023/06/25 02:01:04;;;;;;;8.15;7.10;;;;;;;18.33;83.24;101440.44;5039286;28;20116;-64
2023/06/25 02:03:29;;;;;;;11.00;7.93;;;;;;;18.33;83.83;101437.81;5043279;28;20094;-64
2023/06/25 02:05:54;;;;;;;13.60;8.15;;;;;;;18.31;83.75;101431.78;5045384;28;20037;-64
2023/06/25 02:08:20;;;;;;;11.20;7.50;;;;;;;18.27;83.93;101429.28;5043495;28;20037;-64
2023/06/25 02:10:45;;;;;;;10.75;7.72;;;;;;;18.25;83.58;101429.34;5043668;28;20087;-65
2023/06/25 02:13:11;;;;;;;12.25;7.43;;;;;;;18.20;84.24;101425.97;5038801;28;20049;-64
2023/06/25 02:15:36;;;;;;;11.52;7.63;;;;;;;18.15;84.65;101427.88;5044647;28;20033;-64
2023/06/25 02:18:01;;;;;;;11.40;7.80;;;;;;;18.13;85.02;101421.84;5044536;28;20025;-64
2023/06/25 02:20:27;;;;;;;11.52;7.65;;;;;;;18.08;85.83;101422.88;5036145;28;20131;-64
2023/06/25 02:22:52;;;;;;;13.60;8.45;;;;;;;18.03;86.31;101422.13;5044746;28;20037;-64
2023/06/25 02:25:17;;;;;;;12.90;8.27;;;;;;;18.02;86.28;101417.81;5042726;28;20047;-64
2023/06/25 02:27:43;;;;;;;14.30;8.15;;;;;;;18.00;86.21;101417.84;5042921;28;20428;-64
2023/06/25 02:30:09;;;;;;;10.75;7.55;;;;;;;18.01;86.38;101410.88;5046295;28;20043;-64
2023/06/25 02:32:34;;;;;;;15.25;9.48;;;;;;;18.02;86.19;101409.97;5039478;28;20447;-64
2023/06/25 02:35:00;;;;;;;13.77;8.55;;;;;;;18.00;86.37;101410.00;5038489;28;20071;-64
2023/06/25 02:37:25;;;;;;;12.10;8.13;;;;;;;17.99;86.27;101404.84;5045188;28;20613;-64
2023/06/25 02:39:50;;;;;;;14.77;8.00;;;;;;;17.98;86.39;101403.97;5043699;28;20041;-64
2023/06/25 02:42:16;;;;;;;10.15;7.50;;;;;;;17.96;86.44;101397.91;5045098;28;20037;-64
2023/06/25 02:44:41;;;;;;;12.15;6.82;;;;;;;17.92;86.48;101402.38;5042873;28;20128;-66
2023/06/25 02:47:07;;;;;;;12.25;8.30;;;;;;;17.91;86.85;101410.25;5043877;28;20487;-64
2023/06/25 02:49:32;;;;;;;9.25;8.00;;;;;;;17.94;86.80;101407.56;5041715;28;20041;-64
2023/06/25 02:51:58;;;;;;;14.13;8.10;;;;;;;17.91;87.34;101400.66;5041176;28;20063;-64
2023/06/25 02:54:23;;;;;;;11.73;8.25;;;;;;;17.88;87.33;101408.59;5039460;28;20152;-64
2023/06/25 02:56:50;;;;;;;14.88;8.38;;;;;;;17.87;87.31;101401.63;5040369;28;20039;-64
2023/06/25 02:59:16;;;;;;;10.70;8.27;;;;;;;17.88;87.51;101408.59;5040871;28;20601;-64
2023/06/25 03:01:41;;;;;;;11.48;8.40;;;;;;;17.87;87.63;101393.78;5037563;28;20501;-64
2023/06/25 03:04:06;;;;;;;11.48;8.60;;;;;;;17.85;87.24;101397.34;5041029;28;20652;-64
2023/06/25 03:06:32;;;;;;;13.43;8.73;;;;;;;17.84;87.33;101399.09;5023692;28;20763;-64
2023/06/25 03:08:57;;;;;;;12.73;8.48;;;;;;;17.80;87.06;101400.09;5038433;28;20595;-64
2023/06/25 03:11:23;;;;;;;11.20;8.25;;;;;;;17.78;86.94;101398.41;5040585;28;20036;-64
2023/06/25 03:13:49;;;;;;;7.97;6.93;;;;;;;17.75;86.99;101398.50;5039598;28;20253;-65
2023/06/25 03:16:14;;;;;;;8.25;6.57;;;;;;;17.73;86.86;101406.38;5038190;28;20091;-64
2023/06/25 03:18:40;;;;;;;10.40;7.38;;;;;;;17.71;87.15;101402.09;5039558;28;20032;-64
2023/06/25 03:21:05;;;;;;;13.57;8.20;;;;;;;17.74;86.84;101399.38;5039397;28;20112;-64
2023/06/25 03:23:30;;;;;;;11.57;7.90;;;;;;;17.74;86.61;101404.63;5040214;28;20041;-64
2023/06/25 03:25:56;;;;;;;13.25;8.60;;;;;;;17.71;86.63;101397.72;5037556;28;20146;-64
2023/06/25 03:28:21;;;;;;;12.43;8.80;;;;;;;17.72;86.88;101409.03;5037707;28;20041;-64
2023/06/25 03:30:47;;;;;;;11.07;7.65;;;;;;;17.72;86.73;101391.56;5042832;28;21407;-64
2023/06/25 03:33:13;;;;;;;12.02;7.60;;;;;;;17.74;86.81;101396.78;5040521;28;20418;-64
2023/06/25 03:35:38;;;;;;;12.15;8.02;;;;;;;17.76;86.17;101400.19;5039343;28;20029;-64
2023/06/25 03:38:04;;;;;;;13.32;7.75;;;;;;;17.76;85.70;101397.56;5038517;28;20040;-64
2023/06/25 03:40:29;;;;;;;10.85;8.18;;;;;;;17.77;85.41;101397.56;5039611;28;20144;-64
2023/06/25 03:42:54;;;;;;;10.18;7.85;;;;;;;17.78;85.06;101396.63;5034835;28;20049;-64
2023/06/25 03:45:20;;;;;;;10.38;7.47;;;;;;;17.80;84.72;101392.25;5038161;28;20071;-64
2023/06/25 03:47:45;;;;;;;12.68;7.88;;;;;;;17.81;84.78;101385.25;5042854;28;20053;-64
2023/06/25 03:50:11;;;;;;;18.02;7.93;;;;;;;17.83;84.85;101391.28;5042449;28;20068;-64
2023/06/25 03:52:36;;;;;;;11.38;7.30;;;;;;;17.87;84.95;101396.41;5036917;28;20040;-64
2023/06/25 03:55:02;;;;;;;8.73;6.35;;;;;;;17.92;84.81;101396.28;5036386;28;20041;-64
2023/06/25 03:57:27;;;;;;;9.55;7.57;;;;;;;17.94;84.77;101397.97;5038402;28;20533;-64
2023/06/25 03:59:52;;;;;;;8.55;6.78;;;;;;;17.98;84.41;101398.75;5033233;28;20043;-63
2023/06/25 04:02:18;;;;;;;13.05;7.97;;;;;;;18.02;84.30;101397.72;5036366;28;20710;-63
2023/06/25 04:04:43;;;;;;;12.32;7.32;;;;;;;18.07;84.38;101392.38;5039612;28;20072;-64
2023/06/25 04:07:08;;;;;;;11.38;8.05;;;;;;;18.11;83.94;101392.22;5024357;28;20098;-63
2023/06/25 04:09:34;;;;;;;9.90;7.90;;;;;;;18.13;83.97;101395.69;5038690;28;20033;-64
2023/06/25 04:11:59;;;;;;;13.98;8.38;;;;;;;18.13;83.94;101386.97;5037991;28;20029;-63
2023/06/25 04:14:24;;;;;;;10.38;7.55;;;;;;;18.18;84.03;101392.91;5036084;28;20033;-63
2023/06/25 04:16:50;;;;;;;11.55;8.10;;;;;;;18.25;83.39;101391.84;5036174;28;20048;-63
2023/06/25 04:19:15;;;;;;;10.60;8.00;;;;;;;18.31;83.70;101391.66;5020458;28;20534;-63
2023/06/25 04:21:40;;;;;;;11.00;8.05;;;;;;;18.37;83.50;101381.00;5037843;28;20103;-64
2023/06/25 04:24:06;;;;;;;10.32;7.70;;;;;;;18.45;83.24;101384.22;5019313;28;20160;-64
2023/06/25 04:26:32;;;;;;;20.05;8.43;;;;;;;18.49;83.01;101383.25;5038402;28;20044;-64
2023/06/25 04:28:57;;;;;;;13.88;7.50;;;;;;;18.57;82.99;101389.09;5026064;28;20064;-63
2023/06/25 04:31:23;;;;;;;14.15;8.15;;;;;;;18.64;82.45;101387.16;5038114;28;20751;-64
2023/06/25 04:33:49;;;;;;;11.75;8.23;;;;;;;18.72;82.67;101390.38;5038830;28;20045;-64
2023/06/25 04:36:15;;;;;;;10.65;7.82;;;;;;;18.80;82.32;101383.13;5039924;28;20036;-64
2023/06/25 04:38:40;;;;;;;11.93;8.30;;;;;;;18.87;82.16;101388.16;5037817;28;20433;-64
2023/06/25 04:41:06;;;;;;;10.50;7.82;;;;;;;18.93;81.83;101384.47;5043462;28;20072;-64
2023/06/25 04:43:31;;;;;;;15.48;8.85;;;;;;;18.99;81.61;101387.75;5041014;28;20053;-64
2023/06/25 04:45:56;;;;;;;9.50;7.13;;;;;;;19.06;81.67;101383.13;5041864;28;20036;-64
2023/06/25 04:48:22;;;;;;;14.77;8.65;;;;;;;19.11;81.14;101380.38;5036634;28;20490;-64
2023/06/25 04:50:47;;;;;;;11.82;8.50;;;;;;;19.21;80.87;101387.00;5040532;28;20036;-64
2023/06/25 04:53:13;;;;;;;10.95;8.18;;;;;;;19.25;80.24;101394.72;5040185;28;20278;-64
2023/06/25 04:55:38;;;;;;;9.75;7.38;;;;;;;19.33;80.06;101386.59;5039101;28;20209;-64
2023/06/25 04:58:04;;;;;;;12.25;8.55;;;;;;;19.38;80.09;101390.78;5041045;28;20036;-64
2023/06/25 05:00:29;;;;;;;14.10;7.57;;;;;;;19.43;79.90;101377.50;5038753;28;20489;-64
2023/06/25 05:02:55;;;;;;;11.80;8.27;;;;;;;19.45;79.28;101383.53;5039210;28;20474;-64
2023/06/25 05:05:20;;;;;;;12.57;8.05;;;;;;;19.54;79.81;101391.94;5025791;28;20037;-64
2023/06/25 05:07:47;;;;;;;12.85;8.57;;;;;;;19.60;79.64;101386.50;5043783;28;20078;-64
2023/06/25 05:10:14;;;;;;;11.30;7.53;;;;;;;19.70;79.65;101384.41;5038132;28;20037;-64
2023/06/25 05:12:39;;;;;;;13.32;7.80;;;;;;;19.76;79.44;101380.69;5031943;28;20029;-64
2023/06/25 05:15:05;;;;;;;9.70;7.35;;;;;;;19.86;79.12;101387.38;5039298;28;20021;-64
2023/06/25 05:17:31;;;;;;;13.80;8.10;;;;;;;19.92;78.50;101387.09;5035683;28;20156;-64
2023/06/25 05:19:56;;;;;;;9.52;7.95;;;;;;;19.93;77.62;101381.81;5043721;28;20036;-65
2023/06/25 05:22:22;;;;;;;10.40;8.10;;;;;;;20.02;77.70;101378.84;5043408;28;20124;-65
2023/06/25 05:24:47;;;;;;;9.40;7.32;;;;;;;20.09;77.58;101382.97;5043357;28;20490;-65
2023/06/25 05:27:12;;;;;;;13.00;7.88;;;;;;;20.12;76.89;101382.84;5022118;28;20119;-67
2023/06/25 05:29:38;;;;;;;14.85;7.72;;;;;;;20.17;76.86;101386.16;5026312;28;20044;-65
2023/06/25 05:32:04;;;;;;;12.57;8.00;;;;;;;20.27;76.83;101388.44;5034002;28;20415;-63
2023/06/25 05:34:30;;;;;;;9.57;7.68;;;;;;;20.32;76.06;101375.97;5040978;28;20576;-63
2023/06/25 05:36:55;;;;;;;12.35;8.00;;;;;;;20.39;76.11;101374.84;5042435;28;20048;-62
2023/06/25 05:39:20;;;;;;;10.63;7.60;;;;;;;20.49;75.58;101368.28;5039804;28;20029;-63
2023/06/25 05:41:46;;;;;;;12.18;8.00;;;;;;;20.58;75.02;101367.91;5023952;28;20041;-63
2023/06/25 05:44:11;;;;;;;9.98;7.95;;;;;;;20.65;74.90;101370.25;5041204;28;20037;-62
2023/06/25 05:46:37;;;;;;;10.27;7.55;;;;;;;20.73;75.18;101375.22;5029394;28;20123;-62
2023/06/25 05:49:02;;;;;;;10.20;7.00;;;;;;;20.79;75.13;101371.47;5042624;28;20657;-63
2023/06/25 05:51:27;;;;;;;10.10;7.47;;;;;;;20.88;74.84;101373.72;5040179;28;20858;-62
2023/06/25 05:53:54;;;;;;;10.05;7.07;;;;;;;20.95;74.58;101372.56;5034625;28;20132;-62
2023/06/25 05:56:19;;;;;;;11.27;7.68;;;;;;;21.04;73.68;101369.56;5035060;28;20040;-62
2023/06/25 05:58:45;;;;;;;10.88;7.28;;;;;;;21.13;73.88;101358.66;5026982;28;20029;-62
2023/06/25 06:01:10;;;;;;;12.23;7.65;;;;;;;21.19;73.72;101368.94;5037318;28;21192;-63
2023/06/25 06:03:35;;;;;;;10.75;7.80;;;;;;;21.26;72.77;101358.06;5020681;28;20033;-65
2023/06/25 06:06:01;;;;;;;10.70;6.93;;;;;;;21.35;73.42;101366.47;5040614;28;20039;-65
2023/06/25 06:08:27;;;;;;;11.63;7.32;;;;;;;21.45;73.04;101367.78;5044353;28;20060;-65
2023/06/25 06:10:52;;;;;;;8.63;6.78;;;;;;;21.52;72.05;101363.97;5043956;28;20046;-63
2023/06/25 06:13:18;;;;;;;7.80;6.95;;;;;;;21.60;71.89;101364.53;5040597;28;20037;-64
2023/06/25 06:15:43;;;;;;;10.70;7.70;;;;;;;21.66;71.53;101359.00;5040107;28;20656;-64
2023/06/25 06:18:09;;;;;;;9.98;7.13;;;;;;;21.73;71.14;101349.88;5038118;28;20053;-64
2023/06/25 06:20:34;;;;;;;10.20;7.53;;;;;;;21.91;70.53;101350.84;5039983;28;20037;-64
2023/06/25 06:23:01;;;;;;;9.75;6.93;;;;;;;21.97;71.07;101354.03;5039936;28;20120;-64
2023/06/25 06:25:27;;;;;;;12.93;7.93;;;;;;;22.02;69.59;101338.03;5038415;28;20525;-64
2023/06/25 06:27:54;;;;;;;11.05;6.97;;;;;;;22.15;69.38;101344.41;5040527;28;20171;-64
2023/06/25 06:30:22;;;;;;;10.00;7.03;;;;;;;22.26;68.28;101332.44;5019794;28;20100;-64
2023/06/25 06:32:48;;;;;;;8.77;7.25;;;;;;;22.31;68.58;101348.06;5044282;28;20039;-64
2023/06/25 06:35:13;;;;;;;7.20;6.20;;;;;;;22.43;68.47;101341.38;5041705;28;20686;-64
2023/06/25 06:37:39;;;;;;;7.70;6.88;;;;;;;22.52;67.77;101333.88;5041317;28;20065;-64
2023/06/25 06:40:05;;;;;;;8.05;6.63;;;;;;;22.66;66.62;101314.75;5038677;28;20413;-64
2023/06/25 06:42:30;;;;;;;8.13;6.60;;;;;;;22.79;65.60;101306.19;5035836;28;20569;-64
2023/06/25 06:44:56;;;;;;;11.23;7.35;;;;;;;22.91;66.39;101336.34;5037129;28;20048;-63
2023/06/25 06:47:21;;;;;;;9.55;6.57;;;;;;;23.03;65.81;101319.91;5036601;28;20669;-64
2023/06/25 06:49:46;;;;;;;8.40;6.75;;;;;;;23.09;64.43;101301.13;5039593;28;20033;-64
2023/06/25 06:52:13;;;;;;;8.38;5.85;;;;;;;23.17;64.57;101309.47;5040028;28;20123;-64
2023/06/25 06:54:38;;;;;;;10.05;6.93;;;;;;;23.26;64.40;101313.47;5037188;28;20131;-63
2023/06/25 06:57:05;;;;;;;8.73;6.18;;;;;;;23.32;65.12;101329.81;5013542;28;20800;-63
2023/06/25 06:59:30;;;;;;;8.88;6.60;;;;;;;23.38;63.62;101297.00;5034872;28;20696;-63
2023/06/25 07:01:55;;;;;;;7.43;6.28;;;;;;;23.48;64.92;101318.47;5037846;28;20036;-63
2023/06/25 07:04:21;;;;;;;10.30;6.47;;;;;;;23.55;62.57;101283.75;5040149;28;20805;-64
2023/06/25 07:06:46;;;;;;;7.40;5.80;;;;;;;23.71;62.46;101284.63;5041638;28;20064;-64
2023/06/25 07:09:11;;;;;;;9.18;6.65;;;;;;;23.80;61.83;101280.63;5040944;28;20045;-64
2023/06/25 07:11:37;;;;;;;8.35;6.00;;;;;;;23.88;61.29;101273.13;5021817;28;20619;-63
2023/06/25 07:14:02;;;;;;;8.43;5.50;;;;;;;23.92;60.83;101266.75;5047219;28;20055;-64
2023/06/25 07:16:28;;;;;;;7.20;5.78;;;;;;;24.07;60.23;101270.38;5038816;28;20056;-64
2023/06/25 07:18:53;;;;;;;8.30;6.00;;;;;;;24.17;59.90;101269.75;5035488;28;20060;-64
2023/06/25 07:21:19;;;;;;;6.88;5.47;;;;;;;24.24;59.72;101268.47;5042930;28;20052;-64
2023/06/25 07:23:44;;;;;;;9.07;6.40;;;;;;;24.35;60.22;101286.34;5036764;28;20075;-63
2023/06/25 07:26:09;;;;;;;8.57;5.80;;;;;;;24.50;60.12;101278.38;5039611;28;20049;-64
2023/06/25 07:28:35;;;;;;;7.93;6.20;;;;;;;24.60;60.42;101283.16;5035727;28;20037;-64
2023/06/25 07:31:00;;;;;;;7.43;5.55;;;;;;;24.66;59.86;101272.22;5034560;28;20152;-64
2023/06/25 07:33:25;;;;;;;7.70;5.57;;;;;;;24.69;59.74;101280.00;5046080;28;20052;-64
2023/06/25 07:35:51;;;;;;;7.40;6.38;;;;;;;24.76;58.89;101261.03;5036176;28;20037;-64
2023/06/25 07:38:16;;;;;;;7.75;5.25;;;;;;;24.83;59.20;101266.81;5041164;28;20028;-64
2023/06/25 07:40:41;;;;;;;7.13;5.22;;;;;;;24.90;57.16;101244.34;5038684;28;20047;-64
2023/06/25 07:43:07;;;;;;;6.15;5.20;;;;;;;24.96;57.33;101244.84;5039363;28;20058;-64
2023/06/25 07:45:32;;;;;;;8.55;5.55;;;;;;;25.14;56.83;101236.72;5032502;28;20096;-64
2023/06/25 07:47:57;;;;;;;6.43;5.28;;;;;;;25.22;56.39;101224.72;5033917;28;20063;-64
2023/06/25 07:50:23;;;;;;;7.18;5.82;;;;;;;25.27;56.58;101241.16;5039245;28;20124;-63
2023/06/25 07:52:48;;;;;;;6.50;5.78;;;;;;;25.35;55.55;101233.59;5038455;28;20051;-64
2023/06/25 07:55:14;;;;;;;7.88;5.90;;;;;;;25.49;54.56;101211.59;5037207;28;20061;-64
2023/06/25 07:57:39;;;;;;;10.65;5.72;;;;;;;25.60;54.30;101202.03;5035677;28;20037;-65
2023/06/25 08:00:06;;;;;;;7.82;5.40;;;;;;;25.65;53.39;101190.31;5036357;28;20033;-64
2023/06/25 08:02:31;;;;;;;6.40;5.65;;;;;;;25.80;53.58;101203.38;5036105;28;20053;-64
2023/06/25 08:04:57;;;;;;;6.60;5.10;;;;;;;25.83;54.32;101215.59;5041359;28;20829;-65
2023/06/25 08:07:22;;;;;;;7.57;5.57;;;;;;;25.84;53.49;101210.19;5040615;28;20749;-65
2023/06/25 08:09:48;;;;;;;6.43;5.30;;;;;;;25.86;53.78;101208.28;5039015;28;20037;-65
2023/06/25 08:12:16;;;;;;;7.15;5.30;;;;;;;25.93;53.55;101200.78;5036639;28;21010;-65
2023/06/25 08:14:42;;;;;;;6.00;5.40;;;;;;;26.05;51.62;101170.84;5037134;28;20426;-65
2023/06/25 08:17:08;;;;;;;8.77;5.32;;;;;;;26.13;52.41;101185.31;5040474;28;20079;-64
2023/06/25 08:19:33;;;;;;;7.35;5.57;;;;;;;26.35;51.78;101178.59;5022277;28;20140;-65
2023/06/25 08:21:59;;;;;;;7.22;4.60;;;;;;;26.41;51.26;101173.75;5036775;28;20661;-64
2023/06/25 08:24:24;;;;;;;5.95;4.90;;;;;;;26.49;50.24;101152.84;5037507;28;20041;-64
2023/06/25 08:26:49;;;;;;;5.90;5.07;;;;;;;26.57;51.08;101168.25;5038361;28;20044;-64
2023/06/25 08:29:15;;;;;;;6.18;4.97;;;;;;;26.62;51.74;101182.88;5037361;28;20685;-64
2023/06/25 08:31:40;;;;;;;7.47;5.45;;;;;;;26.66;50.73;101155.19;5034843;28;20041;-64
2023/06/25 08:34:07;;;;;;;12.48;5.68;;;;;;;26.79;51.15;101165.84;5038864;28;20032;-64
2023/06/25 08:36:32;;;;;;;6.03;4.72;;;;;;;26.85;48.07;101109.69;5039757;28;20029;-65
2023/06/25 08:38:57;;;;;;;7.00;5.38;;;;;;;27.06;49.96;101147.13;5039739;28;20037;-64
2023/06/25 08:41:23;;;;;;;6.25;4.80;;;;;;;27.13;49.84;101148.41;5038543;28;20036;-64
2023/06/25 08:43:49;;;;;;;11.95;5.47;;;;;;;27.32;47.16;101108.94;5039372;28;20029;-65
2023/06/25 08:46:14;;;;;;;6.30;4.80;;;;;;;27.37;49.37;101137.84;5035334;28;20681;-64
2023/06/25 08:48:42;;;;;;;6.60;4.80;;;;;;;27.48;47.20;101114.03;5034933;28;20429;-64
2023/06/25 08:51:15;;;;;;;8.85;5.57;;;;;;;27.59;47.38;101114.09;5036512;28;20033;-64
2023/06/25 08:53:41;;;;;;;7.22;4.75;;;;;;;27.66;47.82;101128.63;5031066;28;20051;-64
2023/06/25 08:56:07;;;;;;;8.00;5.65;;;;;;;27.68;47.94;101129.34;5032742;28;20033;-64
2023/06/25 08:58:34;;;;;;;6.53;4.97;;;;;;;27.78;45.75;101099.34;5031038;28;20040;-64
2023/06/25 09:00:59;;;;;;;6.05;4.53;;;;;;;27.89;47.08;101119.78;5036422;28;20033;-64
2023/06/25 09:03:25;;;;;;;5.90;4.88;;;;;;;27.90;47.44;101124.16;5031837;28;20041;-64
2023/06/25 09:05:53;;;;;;;5.32;4.80;;;;;;;28.00;44.25;101082.63;5036692;28;20061;-64
2023/06/25 09:08:22;;;;;;;6.28;5.07;;;;;;;28.01;44.88;101084.31;5035944;28;20049;-64
2023/06/25 09:10:55;;;;;;;5.75;4.88;;;;;;;28.11;45.15;101097.81;5033539;28;20045;-64
2023/06/25 09:13:27;;;;;;;5.57;4.83;;;;;;;28.14;44.78;101086.94;5029823;28;20037;-64
2023/06/25 09:16:00;;;;;;;6.57;5.20;;;;;;;28.24;45.77;101110.03;5031644;28;20854;-64
2023/06/25 09:18:26;;;;;;;5.47;4.97;;;;;;;28.35;43.84;101069.34;5034491;28;20529;-64
2023/06/25 09:20:51;;;;;;;6.03;4.78;;;;;;;28.52;43.55;101068.00;5037258;28;20044;-64
2023/06/25 09:23:21;;;;;;;7.32;5.30;;;;;;;28.68;43.56;101071.19;5037744;28;20044;-64
2023/06/25 09:25:47;;;;;;;5.50;4.43;;;;;;;28.69;42.45;101056.88;5031976;28;20148;-64
2023/06/25 09:28:13;;;;;;;5.90;5.05;;;;;;;28.75;43.68;101075.91;5036056;28;20033;-64
2023/06/25 09:30:39;;;;;;;6.60;5.20;;;;;;;28.79;43.93;101072.06;5037910;28;20037;-65
2023/06/25 09:33:05;;;;;;;5.70;4.55;;;;;;;28.73;42.48;101056.56;5038802;28;20142;-65
2023/06/25 09:35:33;;;;;;;6.53;4.45;;;;;;;28.78;42.75;101056.19;5038309;28;20289;-65
2023/06/25 09:37:59;;;;;;;5.22;4.30;;;;;;;28.96;41.65;101043.22;5038757;28;20025;-64
2023/06/25 09:40:24;;;;;;;5.85;4.32;;;;;;;29.07;40.83;101051.19;5039754;28;20502;-64
2023/06/25 09:42:53;;;;;;;6.35;5.03;;;;;;;29.16;40.70;101024.66;5017563;28;20088;-64
2023/06/25 09:45:21;;;;;;;6.75;4.28;;;;;;;29.24;40.58;101013.41;5035627;28;20040;-64
2023/06/25 09:47:48;;;;;;;7.72;4.82;;;;;;;29.30;40.98;101043.00;5034487;28;20040;-64
2023/06/25 09:50:26;;;;;;;5.28;4.53;;;;;;;29.41;41.16;101031.53;5042096;28;20572;-64
2023/06/25 09:52:56;;;;;;;5.88;4.65;;;;;;;29.53;41.07;101033.19;5037126;28;20595;-64
2023/06/25 09:55:21;;;;;;;6.38;4.72;;;;;;;29.52;39.70;101015.50;5034654;28;20518;-64
2023/06/25 09:57:49;;;;;;;6.00;4.50;;;;;;;29.55;39.04;100996.59;5018845;28;20033;-64
2023/06/25 10:00:15;;;;;;;5.03;4.45;;;;;;;29.63;38.78;100994.13;5019643;28;20410;-64
2023/06/25 10:02:41;;;;;;;6.40;5.15;;;;;;;29.73;39.01;101000.38;5018835;28;20613;-64
2023/06/25 10:05:06;;;;;;;5.53;5.03;;;;;;;29.84;37.30;100984.31;5034992;28;20116;-64
2023/06/25 10:07:32;;;;;;;6.40;4.53;;;;;;;30.04;38.72;100993.31;5040470;28;20450;-64
2023/06/25 10:09:57;;;;;;;5.57;4.60;;;;;;;30.08;37.15;100989.41;5042306;28;20032;-64
2023/06/25 10:12:23;;;;;;;5.13;4.13;;;;;;;30.05;37.57;100984.31;5025669;28;20044;-66
2023/06/25 10:14:49;;;;;;;4.65;4.20;;;;;;;30.14;38.33;100999.53;5040096;28;20462;-66
2023/06/25 10:17:14;;;;;;;5.15;4.32;;;;;;;30.16;38.27;100994.09;5038316;28;20514;-66
2023/06/25 10:19:52;;;;;;;5.55;4.32;;;;;;;30.20;36.60;100979.50;5035834;28;20048;-65
2023/06/25 10:22:21;;;;;;;6.53;4.20;;;;;;;30.30;35.90;100964.38;5038624;28;20048;-66
2023/06/25 10:24:51;;;;;;;4.72;4.20;;;;;;;30.43;36.80;100979.16;5037994;28;20090;-66
2023/06/25 10:27:26;;;;;;;7.25;3.92;;;;;;;30.42;36.38;100968.66;5022588;28;20041;-67
2023/06/25 10:29:53;;;;;;;6.30;4.25;;;;;;;30.47;36.72;100969.94;5038093;28;20045;-67
2023/06/25 10:32:23;;;;;;;3.83;3.42;;;;;;;30.45;36.03;100965.72;5039550;28;20127;-67
2023/06/25 10:34:52;;;;;;;5.00;4.05;;;;;;;30.58;35.13;100950.31;5040025;28;20033;-66
2023/06/25 10:37:17;;;;;;;5.85;4.25;;;;;;;30.70;36.80;100973.25;5041441;28;20063;-67
2023/06/25 10:39:43;;;;;;;5.60;4.20;;;;;;;30.82;36.27;100952.63;5037114;28;20064;-67
2023/06/25 10:42:08;;;;;;;5.57;4.47;;;;;;;30.79;34.24;100920.88;5039917;28;20912;-66
2023/06/25 10:44:34;;;;;;;5.22;4.22;;;;;;;30.73;34.56;100943.63;5039724;28;20029;-66
2023/06/25 10:47:04;;;;;;;6.55;4.38;;;;;;;30.79;34.22;100932.41;5039965;28;20029;-67
2023/06/25 10:49:29;;;;;;;5.25;4.28;;;;;;;30.96;34.02;100923.72;5041581;28;20408;-67
2023/06/25 10:51:58;;;;;;;5.03;3.95;;;;;;;31.02;34.84;100936.50;5039554;28;20033;-67
2023/06/25 10:54:24;;;;;;;6.65;3.83;;;;;;;31.16;34.85;100931.75;5036796;28;20131;-67
2023/06/25 10:56:49;;;;;;;4.47;3.85;;;;;;;31.30;34.84;100940.19;5038565;28;20067;-66
2023/06/25 10:59:22;;;;;;;4.65;3.50;;;;;;;31.44;33.75;100921.03;5035932;28;20061;-66
2023/06/25 11:01:48;;;;;;;3.88;3.47;;;;;;;31.50;33.12;100914.31;5036085;28;20047;-67
2023/06/25 11:04:14;;;;;;;4.90;3.67;;;;;;;31.58;33.03;100909.09;5040392;28;20041;-66
2023/06/25 11:06:39;;;;;;;4.00;3.50;;;;;;;31.66;33.10;100911.88;5041132;28;20354;-67
2023/06/25 11:09:05;;;;;;;4.90;4.18;;;;;;;31.69;32.44;100890.22;5046082;28;20041;-67
2023/06/25 11:11:31;;;;;;;4.40;3.70;;;;;;;31.78;33.14;100917.91;5039166;28;20415;-66
2023/06/25 11:13:56;;;;;;;4.82;3.70;;;;;;;31.76;33.36;100922.59;5040843;28;20033;-67
2023/06/25 11:16:21;;;;;;;4.10;3.70;;;;;;;31.90;33.03;100917.59;5039757;28;20433;-66